sensor_id;sensor_type;location;lat;lon;timestamp;P1;durP1;ratioP1;P2;durP2;ratioP2
23228;SDS011;11783;50.350;6.576;2023-12-07T00:00:09;22.60;;;11.50;;
23228;SDS011;11783;50.350;6.576;2023-12-07T00:02:34;26.30;;;11.13;;
23228;SDS011;11783;50.350;6.576;2023-12-07T00:05:00;23.42;;;11.57;;
23228;SDS011;11783;50.350;6.576;2023-12-07T00:07:25;21.63;;;11.50;;
23228;SDS011;11783;50.350;6.576;2023-12-07T00:09:50;21.63;;;10.93;;
23228;SDS011;11783;50.350;6.576;2023-12-07T00:12:16;24.08;;;11.18;;
23228;SDS011;11783;50.350;6.576;2023-12-07T00:14:42;20.05;;;10.70;;
23228;SDS011;11783;50.350;6.576;2023-12-07T00:17:07;22.23;;;10.95;;
23228;SDS011;11783;50.350;6.576;2023-12-07T00:19:33;33.25;;;14.18;;
23228;SDS011;11783;50.350;6.576;2023-12-07T00:21:58;27.23;;;12.23;;
23228;SDS011;11783;50.350;6.576;2023-12-07T00:24:23;22.45;;;10.60;;
23228;SDS011;11783;50.350;6.576;2023-12-07T00:26:49;21.80;;;10.48;;
23228;SDS011;11783;50.350;6.576;2023-12-07T00:29:14;26.38;;;12.23;;
23228;SDS011;11783;50.350;6.576;2023-12-07T00:31:40;23.85;;;11.85;;
23228;SDS011;11783;50.350;6.576;2023-12-07T00:34:05;22.17;;;10.80;;
23228;SDS011;11783;50.350;6.576;2023-12-07T00:36:31;25.10;;;11.27;;
23228;SDS011;11783;50.350;6.576;2023-12-07T00:38:56;24.73;;;10.98;;
23228;SDS011;11783;50.350;6.576;2023-12-07T00:41:21;26.25;;;10.88;;
23228;SDS011;11783;50.350;6.576;2023-12-07T00:43:47;21.65;;;11.13;;
23228;SDS011;11783;50.350;6.576;2023-12-07T00:46:12;22.42;;;11.00;;
23228;SDS011;11783;50.350;6.576;2023-12-07T00:48:38;23.13;;;11.60;;
23228;SDS011;11783;50.350;6.576;2023-12-07T00:51:03;25.90;;;12.20;;
23228;SDS011;11783;50.350;6.576;2023-12-07T00:53:31;22.15;;;11.82;;
23228;SDS011;11783;50.350;6.576;2023-12-07T00:55:56;22.27;;;10.82;;
23228;SDS011;11783;50.350;6.576;2023-12-07T00:58:22;22.83;;;11.18;;
23228;SDS011;11783;50.350;6.576;2023-12-07T01:00:48;23.90;;;11.35;;
23228;SDS011;11783;50.350;6.576;2023-12-07T01:03:13;24.42;;;11.50;;
23228;SDS011;11783;50.350;6.576;2023-12-07T01:05:38;23.40;;;11.77;;
23228;SDS011;11783;50.350;6.576;2023-12-07T01:08:04;26.05;;;11.75;;
23228;SDS011;11783;50.350;6.576;2023-12-07T01:10:29;21.77;;;11.13;;
23228;SDS011;11783;50.350;6.576;2023-12-07T01:12:55;22.50;;;11.25;;
23228;SDS011;11783;50.350;6.576;2023-12-07T01:15:20;20.77;;;10.77;;
23228;SDS011;11783;50.350;6.576;2023-12-07T01:17:45;25.40;;;11.23;;
23228;SDS011;11783;50.350;6.576;2023-12-07T01:20:11;26.00;;;11.80;;
23228;SDS011;11783;50.350;6.576;2023-12-07T01:22:38;22.17;;;11.43;;
23228;SDS011;11783;50.350;6.576;2023-12-07T01:25:04;23.50;;;11.20;;
23228;SDS011;11783;50.350;6.576;2023-12-07T01:27:30;20.63;;;10.05;;
23228;SDS011;11783;50.350;6.576;2023-12-07T01:29:56;23.45;;;11.40;;
23228;SDS011;11783;50.350;6.576;2023-12-07T01:32:22;28.92;;;12.07;;
23228;SDS011;11783;50.350;6.576;2023-12-07T01:34:47;24.05;;;10.85;;
23228;SDS011;11783;50.350;6.576;2023-12-07T01:37:12;26.42;;;11.95;;
23228;SDS011;11783;50.350;6.576;2023-12-07T01:39:38;23.88;;;11.73;;
23228;SDS011;11783;50.350;6.576;2023-12-07T01:42:03;24.52;;;10.63;;
23228;SDS011;11783;50.350;6.576;2023-12-07T01:44:29;22.88;;;10.82;;
23228;SDS011;11783;50.350;6.576;2023-12-07T01:46:54;23.98;;;11.05;;
23228;SDS011;11783;50.350;6.576;2023-12-07T01:49:20;23.73;;;11.07;;
23228;SDS011;11783;50.350;6.576;2023-12-07T01:51:46;24.83;;;11.35;;
23228;SDS011;11783;50.350;6.576;2023-12-07T01:54:11;25.05;;;10.35;;
23228;SDS011;11783;50.350;6.576;2023-12-07T01:56:37;24.48;;;10.40;;
23228;SDS011;11783;50.350;6.576;2023-12-07T01:59:02;23.23;;;10.98;;
23228;SDS011;11783;50.350;6.576;2023-12-07T02:01:28;20.52;;;9.85;;
23228;SDS011;11783;50.350;6.576;2023-12-07T02:03:54;21.15;;;11.20;;
23228;SDS011;11783;50.350;6.576;2023-12-07T02:06:19;27.30;;;11.80;;
23228;SDS011;11783;50.350;6.576;2023-12-07T02:08:45;25.23;;;11.38;;
23228;SDS011;11783;50.350;6.576;2023-12-07T02:11:11;24.73;;;11.98;;
23228;SDS011;11783;50.350;6.576;2023-12-07T02:13:36;22.15;;;10.77;;
23228;SDS011;11783;50.350;6.576;2023-12-07T02:16:06;22.92;;;10.82;;
23228;SDS011;11783;50.350;6.576;2023-12-07T02:21:38;26.15;;;11.05;;
23228;SDS011;11783;50.350;6.576;2023-12-07T02:24:10;21.20;;;10.55;;
23228;SDS011;11783;50.350;6.576;2023-12-07T02:26:39;24.15;;;10.20;;
23228;SDS011;11783;50.350;6.576;2023-12-07T02:29:04;25.50;;;10.45;;
23228;SDS011;11783;50.350;6.576;2023-12-07T02:31:30;25.17;;;10.30;;
23228;SDS011;11783;50.350;6.576;2023-12-07T02:33:55;23.92;;;9.73;;
23228;SDS011;11783;50.350;6.576;2023-12-07T02:36:22;22.10;;;10.77;;
23228;SDS011;11783;50.350;6.576;2023-12-07T02:38:51;21.70;;;10.82;;
23228;SDS011;11783;50.350;6.576;2023-12-07T02:41:21;22.92;;;10.95;;
23228;SDS011;11783;50.350;6.576;2023-12-07T02:43:48;27.35;;;10.45;;
23228;SDS011;11783;50.350;6.576;2023-12-07T02:46:13;26.08;;;10.77;;
23228;SDS011;11783;50.350;6.576;2023-12-07T02:48:39;21.83;;;9.32;;
23228;SDS011;11783;50.350;6.576;2023-12-07T02:51:04;22.23;;;10.82;;
23228;SDS011;11783;50.350;6.576;2023-12-07T02:53:29;21.95;;;10.02;;
23228;SDS011;11783;50.350;6.576;2023-12-07T02:55:55;22.52;;;10.32;;
23228;SDS011;11783;50.350;6.576;2023-12-07T02:58:20;24.80;;;10.77;;
23228;SDS011;11783;50.350;6.576;2023-12-07T03:00:45;24.33;;;10.40;;
23228;SDS011;11783;50.350;6.576;2023-12-07T03:03:11;20.92;;;10.32;;
23228;SDS011;11783;50.350;6.576;2023-12-07T03:05:36;25.88;;;10.80;;
23228;SDS011;11783;50.350;6.576;2023-12-07T03:08:02;23.80;;;11.15;;
23228;SDS011;11783;50.350;6.576;2023-12-07T03:10:27;21.95;;;10.05;;
23228;SDS011;11783;50.350;6.576;2023-12-07T03:12:53;23.77;;;11.35;;
23228;SDS011;11783;50.350;6.576;2023-12-07T03:15:18;22.15;;;10.52;;
23228;SDS011;11783;50.350;6.576;2023-12-07T03:17:44;25.38;;;11.48;;
23228;SDS011;11783;50.350;6.576;2023-12-07T03:20:09;20.88;;;9.52;;
23228;SDS011;11783;50.350;6.576;2023-12-07T03:22:35;22.60;;;10.82;;
23228;SDS011;11783;50.350;6.576;2023-12-07T03:25:00;23.90;;;10.20;;
23228;SDS011;11783;50.350;6.576;2023-12-07T03:27:26;20.00;;;10.15;;
23228;SDS011;11783;50.350;6.576;2023-12-07T03:29:53;24.35;;;11.55;;
23228;SDS011;11783;50.350;6.576;2023-12-07T03:32:18;28.05;;;12.40;;
23228;SDS011;11783;50.350;6.576;2023-12-07T03:34:44;25.92;;;11.57;;
23228;SDS011;11783;50.350;6.576;2023-12-07T03:37:09;25.80;;;11.25;;
23228;SDS011;11783;50.350;6.576;2023-12-07T03:39:34;27.23;;;11.68;;
23228;SDS011;11783;50.350;6.576;2023-12-07T03:42:00;22.00;;;10.70;;
23228;SDS011;11783;50.350;6.576;2023-12-07T03:44:25;23.70;;;10.98;;
23228;SDS011;11783;50.350;6.576;2023-12-07T03:46:51;26.80;;;11.55;;
23228;SDS011;11783;50.350;6.576;2023-12-07T03:49:17;26.27;;;11.93;;
23228;SDS011;11783;50.350;6.576;2023-12-07T03:51:42;29.48;;;12.45;;
23228;SDS011;11783;50.350;6.576;2023-12-07T03:54:08;29.33;;;11.50;;
23228;SDS011;11783;50.350;6.576;2023-12-07T03:56:33;22.85;;;10.93;;
23228;SDS011;11783;50.350;6.576;2023-12-07T03:58:59;26.15;;;10.88;;
23228;SDS011;11783;50.350;6.576;2023-12-07T04:01:24;27.70;;;11.65;;
23228;SDS011;11783;50.350;6.576;2023-12-07T04:03:51;25.55;;;11.70;;
23228;SDS011;11783;50.350;6.576;2023-12-07T04:06:17;23.70;;;11.02;;
23228;SDS011;11783;50.350;6.576;2023-12-07T04:08:43;28.08;;;11.75;;
23228;SDS011;11783;50.350;6.576;2023-12-07T04:11:09;26.33;;;11.50;;
23228;SDS011;11783;50.350;6.576;2023-12-07T04:13:34;26.92;;;12.27;;
23228;SDS011;11783;50.350;6.576;2023-12-07T04:16:00;28.63;;;11.95;;
23228;SDS011;11783;50.350;6.576;2023-12-07T04:18:25;25.65;;;11.43;;
23228;SDS011;11783;50.350;6.576;2023-12-07T04:20:51;26.20;;;11.60;;
23228;SDS011;11783;50.350;6.576;2023-12-07T04:23:17;25.02;;;11.18;;
23228;SDS011;11783;50.350;6.576;2023-12-07T04:25:42;25.45;;;11.38;;
23228;SDS011;11783;50.350;6.576;2023-12-07T04:28:07;25.67;;;11.70;;
23228;SDS011;11783;50.350;6.576;2023-12-07T04:30:33;27.65;;;12.30;;
23228;SDS011;11783;50.350;6.576;2023-12-07T04:32:58;24.42;;;11.65;;
23228;SDS011;11783;50.350;6.576;2023-12-07T04:35:23;26.55;;;11.60;;
23228;SDS011;11783;50.350;6.576;2023-12-07T04:37:49;25.02;;;11.48;;
23228;SDS011;11783;50.350;6.576;2023-12-07T04:40:14;26.35;;;10.20;;
23228;SDS011;11783;50.350;6.576;2023-12-07T04:42:40;22.02;;;10.38;;
23228;SDS011;11783;50.350;6.576;2023-12-07T04:45:06;25.95;;;10.00;;
23228;SDS011;11783;50.350;6.576;2023-12-07T04:47:32;24.48;;;10.70;;
23228;SDS011;11783;50.350;6.576;2023-12-07T04:49:58;26.52;;;10.98;;
23228;SDS011;11783;50.350;6.576;2023-12-07T04:52:24;23.48;;;9.82;;
23228;SDS011;11783;50.350;6.576;2023-12-07T04:54:49;22.02;;;9.88;;
23228;SDS011;11783;50.350;6.576;2023-12-07T04:57:14;21.80;;;9.57;;
23228;SDS011;11783;50.350;6.576;2023-12-07T04:59:40;18.52;;;9.73;;
23228;SDS011;11783;50.350;6.576;2023-12-07T05:02:05;21.20;;;10.23;;
23228;SDS011;11783;50.350;6.576;2023-12-07T05:04:31;21.52;;;9.68;;
23228;SDS011;11783;50.350;6.576;2023-12-07T05:06:58;18.92;;;9.43;;
23228;SDS011;11783;50.350;6.576;2023-12-07T05:09:24;21.10;;;10.02;;
23228;SDS011;11783;50.350;6.576;2023-12-07T05:11:51;22.08;;;10.05;;
23228;SDS011;11783;50.350;6.576;2023-12-07T05:14:18;21.52;;;9.20;;
23228;SDS011;11783;50.350;6.576;2023-12-07T05:16:44;25.13;;;10.07;;
23228;SDS011;11783;50.350;6.576;2023-12-07T05:19:10;18.73;;;9.48;;
23228;SDS011;11783;50.350;6.576;2023-12-07T05:21:37;22.83;;;9.65;;
23228;SDS011;11783;50.350;6.576;2023-12-07T05:24:02;22.17;;;10.50;;
23228;SDS011;11783;50.350;6.576;2023-12-07T05:26:28;24.10;;;10.32;;
23228;SDS011;11783;50.350;6.576;2023-12-07T05:28:54;23.10;;;9.73;;
23228;SDS011;11783;50.350;6.576;2023-12-07T05:31:20;21.25;;;10.35;;
23228;SDS011;11783;50.350;6.576;2023-12-07T05:33:45;26.08;;;10.13;;
23228;SDS011;11783;50.350;6.576;2023-12-07T05:36:11;21.20;;;10.25;;
23228;SDS011;11783;50.350;6.576;2023-12-07T05:38:37;25.80;;;10.32;;
23228;SDS011;11783;50.350;6.576;2023-12-07T05:41:02;24.13;;;10.05;;
23228;SDS011;11783;50.350;6.576;2023-12-07T05:43:28;23.40;;;10.23;;
23228;SDS011;11783;50.350;6.576;2023-12-07T05:45:53;23.63;;;10.57;;
23228;SDS011;11783;50.350;6.576;2023-12-07T05:48:19;21.77;;;10.68;;
23228;SDS011;11783;50.350;6.576;2023-12-07T05:50:44;25.70;;;10.95;;
23228;SDS011;11783;50.350;6.576;2023-12-07T05:53:09;27.67;;;12.18;;
23228;SDS011;11783;50.350;6.576;2023-12-07T05:55:36;23.45;;;11.00;;
23228;SDS011;11783;50.350;6.576;2023-12-07T05:58:01;23.83;;;10.05;;
23228;SDS011;11783;50.350;6.576;2023-12-07T06:00:28;24.58;;;11.57;;
23228;SDS011;11783;50.350;6.576;2023-12-07T06:02:54;25.70;;;11.23;;
23228;SDS011;11783;50.350;6.576;2023-12-07T06:05:19;23.13;;;10.25;;
23228;SDS011;11783;50.350;6.576;2023-12-07T06:07:46;22.77;;;10.80;;
23228;SDS011;11783;50.350;6.576;2023-12-07T06:10:11;20.75;;;10.30;;
23228;SDS011;11783;50.350;6.576;2023-12-07T06:12:37;23.60;;;10.40;;
23228;SDS011;11783;50.350;6.576;2023-12-07T06:15:02;21.50;;;9.57;;
23228;SDS011;11783;50.350;6.576;2023-12-07T06:17:28;24.67;;;11.25;;
23228;SDS011;11783;50.350;6.576;2023-12-07T06:19:54;20.98;;;9.95;;
23228;SDS011;11783;50.350;6.576;2023-12-07T06:22:19;18.50;;;9.88;;
23228;SDS011;11783;50.350;6.576;2023-12-07T06:24:44;20.20;;;10.13;;
23228;SDS011;11783;50.350;6.576;2023-12-07T06:27:10;22.73;;;10.57;;
23228;SDS011;11783;50.350;6.576;2023-12-07T06:29:35;23.83;;;11.18;;
23228;SDS011;11783;50.350;6.576;2023-12-07T06:32:01;25.95;;;10.90;;
23228;SDS011;11783;50.350;6.576;2023-12-07T06:34:26;28.15;;;12.07;;
23228;SDS011;11783;50.350;6.576;2023-12-07T06:36:53;22.17;;;10.13;;
23228;SDS011;11783;50.350;6.576;2023-12-07T06:39:18;20.75;;;10.10;;
23228;SDS011;11783;50.350;6.576;2023-12-07T06:41:44;19.83;;;8.95;;
23228;SDS011;11783;50.350;6.576;2023-12-07T06:44:09;20.92;;;9.32;;
23228;SDS011;11783;50.350;6.576;2023-12-07T06:46:34;20.73;;;10.05;;
23228;SDS011;11783;50.350;6.576;2023-12-07T06:49:00;24.60;;;10.10;;
23228;SDS011;11783;50.350;6.576;2023-12-07T06:51:25;20.65;;;9.55;;
23228;SDS011;11783;50.350;6.576;2023-12-07T06:53:51;21.95;;;10.10;;
23228;SDS011;11783;50.350;6.576;2023-12-07T06:56:17;19.92;;;9.60;;
23228;SDS011;11783;50.350;6.576;2023-12-07T06:58:42;20.67;;;9.77;;
23228;SDS011;11783;50.350;6.576;2023-12-07T07:01:08;22.25;;;8.60;;
23228;SDS011;11783;50.350;6.576;2023-12-07T07:03:33;22.58;;;8.93;;
23228;SDS011;11783;50.350;6.576;2023-12-07T07:06:00;17.08;;;8.32;;
23228;SDS011;11783;50.350;6.576;2023-12-07T07:08:25;20.00;;;8.63;;
23228;SDS011;11783;50.350;6.576;2023-12-07T07:10:51;25.42;;;9.63;;
23228;SDS011;11783;50.350;6.576;2023-12-07T07:13:16;21.20;;;9.23;;
23228;SDS011;11783;50.350;6.576;2023-12-07T07:15:44;21.50;;;9.30;;
23228;SDS011;11783;50.350;6.576;2023-12-07T07:18:10;21.30;;;8.48;;
23228;SDS011;11783;50.350;6.576;2023-12-07T07:20:35;23.70;;;9.60;;
23228;SDS011;11783;50.350;6.576;2023-12-07T07:23:01;20.85;;;9.02;;
23228;SDS011;11783;50.350;6.576;2023-12-07T07:25:26;23.02;;;8.55;;
23228;SDS011;11783;50.350;6.576;2023-12-07T07:27:52;18.45;;;7.93;;
23228;SDS011;11783;50.350;6.576;2023-12-07T07:30:19;21.02;;;8.10;;
23228;SDS011;11783;50.350;6.576;2023-12-07T07:32:45;20.58;;;8.63;;
23228;SDS011;11783;50.350;6.576;2023-12-07T07:35:10;21.33;;;8.35;;
23228;SDS011;11783;50.350;6.576;2023-12-07T07:37:37;20.08;;;8.82;;
23228;SDS011;11783;50.350;6.576;2023-12-07T07:40:07;20.40;;;8.68;;
23228;SDS011;11783;50.350;6.576;2023-12-07T07:42:33;22.27;;;9.13;;
23228;SDS011;11783;50.350;6.576;2023-12-07T07:44:58;20.52;;;7.82;;
23228;SDS011;11783;50.350;6.576;2023-12-07T07:47:24;20.17;;;8.52;;
23228;SDS011;11783;50.350;6.576;2023-12-07T07:49:49;23.23;;;8.25;;
23228;SDS011;11783;50.350;6.576;2023-12-07T07:52:15;20.38;;;8.05;;
23228;SDS011;11783;50.350;6.576;2023-12-07T07:54:40;20.30;;;8.70;;
23228;SDS011;11783;50.350;6.576;2023-12-07T07:57:07;21.95;;;8.88;;
23228;SDS011;11783;50.350;6.576;2023-12-07T07:59:32;21.30;;;8.40;;
23228;SDS011;11783;50.350;6.576;2023-12-07T08:01:58;17.63;;;7.55;;
23228;SDS011;11783;50.350;6.576;2023-12-07T08:04:23;21.67;;;8.30;;
23228;SDS011;11783;50.350;6.576;2023-12-07T08:06:48;16.95;;;7.80;;
23228;SDS011;11783;50.350;6.576;2023-12-07T08:09:14;18.30;;;7.65;;
23228;SDS011;11783;50.350;6.576;2023-12-07T08:11:39;15.80;;;6.35;;
23228;SDS011;11783;50.350;6.576;2023-12-07T08:14:05;19.67;;;8.63;;
23228;SDS011;11783;50.350;6.576;2023-12-07T08:16:31;19.25;;;8.02;;
23228;SDS011;11783;50.350;6.576;2023-12-07T08:18:56;19.20;;;8.23;;
23228;SDS011;11783;50.350;6.576;2023-12-07T08:21:23;20.13;;;8.23;;
23228;SDS011;11783;50.350;6.576;2023-12-07T08:23:50;20.48;;;7.95;;
23228;SDS011;11783;50.350;6.576;2023-12-07T08:26:16;20.27;;;8.90;;
23228;SDS011;11783;50.350;6.576;2023-12-07T08:28:42;25.30;;;8.95;;
23228;SDS011;11783;50.350;6.576;2023-12-07T08:31:07;22.02;;;8.27;;
23228;SDS011;11783;50.350;6.576;2023-12-07T08:33:33;23.08;;;9.75;;
23228;SDS011;11783;50.350;6.576;2023-12-07T08:35:59;24.75;;;9.48;;
23228;SDS011;11783;50.350;6.576;2023-12-07T08:38:25;26.20;;;9.85;;
23228;SDS011;11783;50.350;6.576;2023-12-07T08:40:51;25.10;;;9.40;;
23228;SDS011;11783;50.350;6.576;2023-12-07T08:43:16;23.40;;;9.55;;
23228;SDS011;11783;50.350;6.576;2023-12-07T08:45:43;18.13;;;8.30;;
23228;SDS011;11783;50.350;6.576;2023-12-07T08:48:09;22.48;;;8.77;;
23228;SDS011;11783;50.350;6.576;2023-12-07T08:50:34;21.00;;;9.43;;
23228;SDS011;11783;50.350;6.576;2023-12-07T08:52:59;21.50;;;9.18;;
23228;SDS011;11783;50.350;6.576;2023-12-07T08:55:25;20.67;;;8.82;;
23228;SDS011;11783;50.350;6.576;2023-12-07T08:58:02;24.58;;;9.90;;
23228;SDS011;11783;50.350;6.576;2023-12-07T09:00:30;26.77;;;9.93;;
23228;SDS011;11783;50.350;6.576;2023-12-07T09:02:56;26.10;;;9.90;;
23228;SDS011;11783;50.350;6.576;2023-12-07T09:05:22;22.60;;;7.90;;
23228;SDS011;11783;50.350;6.576;2023-12-07T09:07:47;19.27;;;8.07;;
23228;SDS011;11783;50.350;6.576;2023-12-07T09:10:13;20.05;;;8.00;;
23228;SDS011;11783;50.350;6.576;2023-12-07T09:12:38;19.95;;;8.45;;
23228;SDS011;11783;50.350;6.576;2023-12-07T09:15:03;22.23;;;9.27;;
23228;SDS011;11783;50.350;6.576;2023-12-07T09:17:30;19.80;;;8.50;;
23228;SDS011;11783;50.350;6.576;2023-12-07T09:19:56;23.25;;;9.00;;
23228;SDS011;11783;50.350;6.576;2023-12-07T09:22:21;19.23;;;8.25;;
23228;SDS011;11783;50.350;6.576;2023-12-07T09:24:46;17.48;;;7.68;;
23228;SDS011;11783;50.350;6.576;2023-12-07T09:27:15;19.85;;;8.38;;
23228;SDS011;11783;50.350;6.576;2023-12-07T09:29:40;21.65;;;8.52;;
23228;SDS011;11783;50.350;6.576;2023-12-07T09:32:06;17.58;;;7.70;;
23228;SDS011;11783;50.350;6.576;2023-12-07T09:34:32;17.38;;;7.53;;
23228;SDS011;11783;50.350;6.576;2023-12-07T09:37:07;19.90;;;8.73;;
23228;SDS011;11783;50.350;6.576;2023-12-07T09:39:33;19.08;;;9.32;;
23228;SDS011;11783;50.350;6.576;2023-12-07T09:41:59;17.98;;;7.80;;
23228;SDS011;11783;50.350;6.576;2023-12-07T09:44:25;20.42;;;8.02;;
23228;SDS011;11783;50.350;6.576;2023-12-07T09:46:50;17.02;;;8.05;;
23228;SDS011;11783;50.350;6.576;2023-12-07T09:49:17;20.80;;;9.50;;
23228;SDS011;11783;50.350;6.576;2023-12-07T09:51:43;19.90;;;9.45;;
23228;SDS011;11783;50.350;6.576;2023-12-07T09:54:09;20.65;;;8.43;;
23228;SDS011;11783;50.350;6.576;2023-12-07T09:56:36;18.52;;;8.82;;
23228;SDS011;11783;50.350;6.576;2023-12-07T09:59:01;20.60;;;9.25;;
23228;SDS011;11783;50.350;6.576;2023-12-07T10:01:30;20.20;;;8.57;;
23228;SDS011;11783;50.350;6.576;2023-12-07T10:06:43;18.48;;;8.57;;
23228;SDS011;11783;50.350;6.576;2023-12-07T10:09:15;20.80;;;9.00;;
23228;SDS011;11783;50.350;6.576;2023-12-07T10:11:41;17.58;;;8.02;;
23228;SDS011;11783;50.350;6.576;2023-12-07T10:14:08;19.38;;;9.02;;
23228;SDS011;11783;50.350;6.576;2023-12-07T10:16:34;18.27;;;8.13;;
23228;SDS011;11783;50.350;6.576;2023-12-07T10:19:12;21.40;;;9.15;;
23228;SDS011;11783;50.350;6.576;2023-12-07T10:21:39;21.42;;;9.35;;
23228;SDS011;11783;50.350;6.576;2023-12-07T10:24:05;20.55;;;9.43;;
23228;SDS011;11783;50.350;6.576;2023-12-07T10:26:30;20.35;;;8.98;;
23228;SDS011;11783;50.350;6.576;2023-12-07T10:28:55;21.17;;;9.30;;
23228;SDS011;11783;50.350;6.576;2023-12-07T10:31:21;19.70;;;8.93;;
23228;SDS011;11783;50.350;6.576;2023-12-07T10:33:49;18.85;;;8.90;;
23228;SDS011;11783;50.350;6.576;2023-12-07T10:36:15;21.42;;;8.43;;
23228;SDS011;11783;50.350;6.576;2023-12-07T10:38:40;18.30;;;8.82;;
23228;SDS011;11783;50.350;6.576;2023-12-07T10:41:11;22.25;;;10.15;;
23228;SDS011;11783;50.350;6.576;2023-12-07T10:43:37;21.13;;;10.15;;
23228;SDS011;11783;50.350;6.576;2023-12-07T10:46:07;20.42;;;9.30;;
23228;SDS011;11783;50.350;6.576;2023-12-07T10:48:34;23.70;;;10.13;;
23228;SDS011;11783;50.350;6.576;2023-12-07T10:51:00;18.95;;;9.40;;
23228;SDS011;11783;50.350;6.576;2023-12-07T10:53:34;21.90;;;10.30;;
23228;SDS011;11783;50.350;6.576;2023-12-07T10:56:05;20.95;;;9.95;;
23228;SDS011;11783;50.350;6.576;2023-12-07T10:58:35;21.58;;;9.30;;
23228;SDS011;11783;50.350;6.576;2023-12-07T11:04:07;20.67;;;9.50;;
23228;SDS011;11783;50.350;6.576;2023-12-07T11:06:38;26.58;;;9.60;;
23228;SDS011;11783;50.350;6.576;2023-12-07T11:09:08;18.40;;;8.43;;
23228;SDS011;11783;50.350;6.576;2023-12-07T11:11:39;19.10;;;9.65;;
23228;SDS011;11783;50.350;6.576;2023-12-07T11:14:06;23.48;;;10.25;;
23228;SDS011;11783;50.350;6.576;2023-12-07T11:16:36;20.55;;;9.82;;
23228;SDS011;11783;50.350;6.576;2023-12-07T11:19:07;23.25;;;10.10;;
23228;SDS011;11783;50.350;6.576;2023-12-07T11:22:09;20.17;;;9.10;;
23228;SDS011;11783;50.350;6.576;2023-12-07T11:24:36;24.00;;;9.88;;
23228;SDS011;11783;50.350;6.576;2023-12-07T11:27:02;19.77;;;9.48;;
23228;SDS011;11783;50.350;6.576;2023-12-07T11:29:28;17.25;;;8.50;;
23228;SDS011;11783;50.350;6.576;2023-12-07T11:32:06;16.92;;;8.23;;
23228;SDS011;11783;50.350;6.576;2023-12-07T11:34:39;19.15;;;9.27;;
23228;SDS011;11783;50.350;6.576;2023-12-07T11:37:06;20.65;;;8.38;;
23228;SDS011;11783;50.350;6.576;2023-12-07T11:39:39;21.70;;;9.07;;
23228;SDS011;11783;50.350;6.576;2023-12-07T11:42:11;15.00;;;7.40;;
23228;SDS011;11783;50.350;6.576;2023-12-07T11:44:38;17.58;;;8.25;;
23228;SDS011;11783;50.350;6.576;2023-12-07T11:47:05;17.92;;;9.05;;
23228;SDS011;11783;50.350;6.576;2023-12-07T11:49:31;17.92;;;8.07;;
23228;SDS011;11783;50.350;6.576;2023-12-07T11:51:57;15.77;;;7.57;;
23228;SDS011;11783;50.350;6.576;2023-12-07T11:54:23;17.73;;;8.07;;
23228;SDS011;11783;50.350;6.576;2023-12-07T11:56:52;16.45;;;7.65;;
23228;SDS011;11783;50.350;6.576;2023-12-07T11:59:21;16.08;;;7.65;;
23228;SDS011;11783;50.350;6.576;2023-12-07T12:01:47;12.43;;;6.57;;
23228;SDS011;11783;50.350;6.576;2023-12-07T12:04:14;16.70;;;6.78;;
23228;SDS011;11783;50.350;6.576;2023-12-07T12:06:42;13.82;;;6.70;;
23228;SDS011;11783;50.350;6.576;2023-12-07T12:09:09;14.93;;;6.40;;
23228;SDS011;11783;50.350;6.576;2023-12-07T12:11:35;13.65;;;7.13;;
23228;SDS011;11783;50.350;6.576;2023-12-07T12:14:01;13.40;;;6.78;;
23228;SDS011;11783;50.350;6.576;2023-12-07T12:16:27;14.23;;;5.95;;
23228;SDS011;11783;50.350;6.576;2023-12-07T12:18:52;12.52;;;5.55;;
23228;SDS011;11783;50.350;6.576;2023-12-07T12:21:17;13.73;;;6.15;;
23228;SDS011;11783;50.350;6.576;2023-12-07T12:23:43;15.13;;;6.13;;
23228;SDS011;11783;50.350;6.576;2023-12-07T12:26:09;13.07;;;6.05;;
23228;SDS011;11783;50.350;6.576;2023-12-07T12:28:35;11.57;;;5.68;;
23228;SDS011;11783;50.350;6.576;2023-12-07T12:31:07;13.70;;;6.45;;
23228;SDS011;11783;50.350;6.576;2023-12-07T12:33:36;12.95;;;6.95;;
23228;SDS011;11783;50.350;6.576;2023-12-07T12:36:06;12.75;;;6.57;;
23228;SDS011;11783;50.350;6.576;2023-12-07T12:38:32;15.02;;;6.90;;
23228;SDS011;11783;50.350;6.576;2023-12-07T12:40:58;12.48;;;6.30;;
23228;SDS011;11783;50.350;6.576;2023-12-07T12:43:24;15.10;;;6.47;;
23228;SDS011;11783;50.350;6.576;2023-12-07T12:45:49;14.13;;;6.63;;
23228;SDS011;11783;50.350;6.576;2023-12-07T12:48:15;13.70;;;6.97;;
23228;SDS011;11783;50.350;6.576;2023-12-07T12:50:40;11.52;;;5.55;;
23228;SDS011;11783;50.350;6.576;2023-12-07T12:53:10;12.68;;;5.97;;
23228;SDS011;11783;50.350;6.576;2023-12-07T12:55:39;13.15;;;5.97;;
23228;SDS011;11783;50.350;6.576;2023-12-07T12:58:07;8.23;;;4.13;;
23228;SDS011;11783;50.350;6.576;2023-12-07T13:00:34;13.82;;;6.40;;
23228;SDS011;11783;50.350;6.576;2023-12-07T13:03:03;13.65;;;6.35;;
23228;SDS011;11783;50.350;6.576;2023-12-07T13:05:30;12.35;;;5.72;;
23228;SDS011;11783;50.350;6.576;2023-12-07T13:07:59;11.73;;;6.00;;
23228;SDS011;11783;50.350;6.576;2023-12-07T13:10:26;14.45;;;6.47;;
23228;SDS011;11783;50.350;6.576;2023-12-07T13:12:51;13.20;;;6.75;;
23228;SDS011;11783;50.350;6.576;2023-12-07T13:15:17;13.80;;;6.03;;
23228;SDS011;11783;50.350;6.576;2023-12-07T13:17:42;12.73;;;6.80;;
23228;SDS011;11783;50.350;6.576;2023-12-07T13:20:09;12.23;;;6.28;;
23228;SDS011;11783;50.350;6.576;2023-12-07T13:22:39;15.38;;;6.55;;
23228;SDS011;11783;50.350;6.576;2023-12-07T13:25:05;14.75;;;6.88;;
23228;SDS011;11783;50.350;6.576;2023-12-07T13:27:32;13.27;;;5.97;;
23228;SDS011;11783;50.350;6.576;2023-12-07T13:29:58;11.45;;;6.45;;
23228;SDS011;11783;50.350;6.576;2023-12-07T13:32:23;10.45;;;6.00;;
23228;SDS011;11783;50.350;6.576;2023-12-07T13:34:49;12.80;;;6.20;;
23228;SDS011;11783;50.350;6.576;2023-12-07T13:37:14;11.82;;;6.15;;
23228;SDS011;11783;50.350;6.576;2023-12-07T13:39:40;13.10;;;6.20;;
23228;SDS011;11783;50.350;6.576;2023-12-07T13:42:08;11.32;;;5.68;;
23228;SDS011;11783;50.350;6.576;2023-12-07T13:44:35;12.27;;;5.60;;
23228;SDS011;11783;50.350;6.576;2023-12-07T13:47:00;13.90;;;6.68;;
23228;SDS011;11783;50.350;6.576;2023-12-07T13:49:26;13.25;;;6.55;;
23228;SDS011;11783;50.350;6.576;2023-12-07T13:51:51;12.98;;;6.35;;
23228;SDS011;11783;50.350;6.576;2023-12-07T13:54:17;12.18;;;6.13;;
23228;SDS011;11783;50.350;6.576;2023-12-07T13:56:42;10.93;;;6.15;;
23228;SDS011;11783;50.350;6.576;2023-12-07T13:59:08;14.35;;;6.30;;
23228;SDS011;11783;50.350;6.576;2023-12-07T14:01:35;12.10;;;6.15;;
23228;SDS011;11783;50.350;6.576;2023-12-07T14:04:01;16.13;;;7.28;;
23228;SDS011;11783;50.350;6.576;2023-12-07T14:06:27;15.88;;;6.47;;
23228;SDS011;11783;50.350;6.576;2023-12-07T14:08:53;12.68;;;6.32;;
23228;SDS011;11783;50.350;6.576;2023-12-07T14:11:18;12.63;;;6.13;;
23228;SDS011;11783;50.350;6.576;2023-12-07T14:13:44;12.77;;;6.00;;
23228;SDS011;11783;50.350;6.576;2023-12-07T14:16:11;12.43;;;5.93;;
23228;SDS011;11783;50.350;6.576;2023-12-07T14:18:37;10.63;;;5.82;;
23228;SDS011;11783;50.350;6.576;2023-12-07T14:21:03;12.15;;;5.45;;
23228;SDS011;11783;50.350;6.576;2023-12-07T14:23:28;13.45;;;6.10;;
23228;SDS011;11783;50.350;6.576;2023-12-07T14:25:53;12.75;;;5.97;;
23228;SDS011;11783;50.350;6.576;2023-12-07T14:28:23;11.85;;;5.88;;
23228;SDS011;11783;50.350;6.576;2023-12-07T14:30:48;9.55;;;5.20;;